Time;durP1;ratioP1;P1;durP2;ratioP2;P2;SDS_P1;SDS_P2;PMS_P1;PMS_P2;Temp;Humidity;BMP_temperature;BMP_pressure;BME280_temperature;BME280_humidity;BME280_pressure;Samples;Min_cycle;Max_cycle;Signal;HPM_P1;HPM_P2
2022/07/02 00:02:08;;;;;;;1.65;1.33;;;14.30;99.90;;;;;;5072820;28;20053;-49
2022/07/02 00:04:36;;;;;;;3.58;1.40;;;14.20;99.90;;;;;;5072384;28;20076;-50
2022/07/02 00:07:02;;;;;;;2.92;1.25;;;14.20;99.90;;;;;;5071177;28;20502;-51
2022/07/02 00:09:28;;;;;;;1.90;1.50;;;14.30;99.90;;;;;;5072075;28;20044;-55
2022/07/02 00:11:57;;;;;;;1.63;1.50;;;14.20;99.90;;;;;;5073298;28;20489;-54
2022/07/02 00:14:25;;;;;;;3.30;1.50;;;14.30;99.90;;;;;;5076036;28;20032;-55
2022/07/02 00:16:52;;;;;;;4.03;1.23;;;14.20;99.90;;;;;;5074878;28;20021;-53
2022/07/02 00:19:18;;;;;;;3.38;1.58;;;14.10;99.90;;;;;;5074482;28;20437;-55
2022/07/02 00:21:45;;;;;;;2.63;1.50;;;14.10;99.90;;;;;;5075635;28;20028;-53
2022/07/02 00:24:11;;;;;;;2.80;1.70;;;14.00;99.90;;;;;;5074373;28;20026;-53
2022/07/02 00:26:45;;;;;;;3.55;1.35;;;14.00;99.90;;;;;;5074961;28;20035;-53
2022/07/02 00:29:26;;;;;;;4.40;1.45;;;13.90;99.90;;;;;;5075696;28;20088;-54
2022/07/02 00:31:52;;;;;;;8.48;1.65;;;13.90;99.90;;;;;;5074279;28;20025;-54
2022/07/02 00:34:19;;;;;;;5.10;1.85;;;13.90;99.90;;;;;;5074216;28;20028;-52
2022/07/02 00:36:45;;;;;;;3.53;1.50;;;13.90;99.90;;;;;;5075506;28;20056;-53
2022/07/02 00:39:11;;;;;;;1.88;1.40;;;13.90;99.90;;;;;;5074433;28;20059;-55
2022/07/02 00:41:37;;;;;;;5.10;1.65;;;13.90;99.90;;;;;;5074611;28;20032;-55
2022/07/02 00:44:05;;;;;;;2.13;1.27;;;13.80;99.90;;;;;;5075363;28;20021;-55
2022/07/02 00:46:32;;;;;;;3.92;1.45;;;13.80;99.90;;;;;;5075262;28;20024;-53
2022/07/02 00:49:00;;;;;;;4.05;1.60;;;13.70;99.90;;;;;;5074397;28;20546;-53
2022/07/02 00:51:25;;;;;;;4.70;1.60;;;13.70;99.90;;;;;;5075221;28;20052;-53
2022/07/02 00:53:51;;;;;;;2.45;1.20;;;13.60;99.90;;;;;;5075125;28;20052;-55
2022/07/02 00:56:17;;;;;;;3.10;1.27;;;13.60;99.90;;;;;;5074456;28;20521;-55
2022/07/02 00:58:42;;;;;;;5.65;1.42;;;13.60;99.90;;;;;;5074069;28;20025;-51
2022/07/02 01:01:08;;;;;;;3.35;1.42;;;13.60;99.90;;;;;;5074099;28;20020;-53
2022/07/02 01:03:36;;;;;;;7.93;1.27;;;13.60;99.90;;;;;;5075027;28;20016;-51
2022/07/02 01:06:02;;;;;;;6.18;1.45;;;13.60;99.90;;;;;;5073805;28;20025;-51
2022/07/02 01:11:14;;;;;;;1.80;1.38;;;13.50;99.90;;;;;;5075360;28;20181;-58
2022/07/02 01:13:39;;;;;;;3.47;1.50;;;13.50;99.90;;;;;;5073490;28;20119;-55
2022/07/02 01:16:05;;;;;;;3.28;1.75;;;13.50;99.90;;;;;;5073814;28;20024;-52
2022/07/02 01:18:31;;;;;;;3.08;1.75;;;13.40;99.90;;;;;;5073454;28;20043;-55
2022/07/02 01:20:56;;;;;;;7.07;1.42;;;13.40;99.90;;;;;;5074594;28;20016;-52
2022/07/02 01:23:22;;;;;;;3.72;1.50;;;13.40;99.90;;;;;;5073592;28;20021;-55
2022/07/02 01:25:52;;;;;;;4.65;1.40;;;13.40;99.90;;;;;;5073592;28;20391;-50
2022/07/02 01:28:19;;;;;;;1.80;1.15;;;13.30;99.90;;;;;;5074582;28;20028;-51
2022/07/02 01:30:46;;;;;;;4.03;1.58;;;13.30;99.90;;;;;;5073514;28;20127;-54
2022/07/02 01:33:11;;;;;;;4.93;1.63;;;13.40;99.90;;;;;;5074332;28;20028;-54
2022/07/02 01:35:37;;;;;;;4.78;1.52;;;13.30;99.90;;;;;;5074851;28;20413;-53
2022/07/02 01:38:03;;;;;;;6.32;1.40;;;13.30;99.90;;;;;;5074322;28;20147;-55
2022/07/02 01:40:29;;;;;;;8.68;1.67;;;13.30;99.90;;;;;;5073010;28;20040;-55
2022/07/02 01:42:54;;;;;;;4.28;1.20;;;13.30;99.90;;;;;;5072967;28;20021;-53
2022/07/02 01:45:20;;;;;;;9.55;1.70;;;13.20;99.90;;;;;;5074470;28;20052;-55
2022/07/02 01:47:46;;;;;;;3.03;1.55;;;13.20;99.90;;;;;;5074135;28;20040;-50
2022/07/02 01:50:11;;;;;;;4.30;1.65;;;13.20;99.90;;;;;;5074299;28;20090;-55
2022/07/02 01:52:37;;;;;;;2.47;1.30;;;13.20;99.90;;;;;;5073166;28;20112;-53
2022/07/02 01:55:03;;;;;;;4.60;1.67;;;13.20;99.90;;;;;;5074077;28;20025;-54
2022/07/02 01:57:30;;;;;;;2.42;1.40;;;13.20;99.90;;;;;;5072806;28;20051;-55
2022/07/02 01:59:56;;;;;;;3.70;1.35;;;13.10;99.90;;;;;;5073797;28;20021;-56
2022/07/02 02:02:22;;;;;;;3.65;1.60;;;13.20;99.90;;;;;;5072959;28;20027;-53
2022/07/02 02:04:48;;;;;;;2.13;1.60;;;13.20;99.90;;;;;;5074143;28;20032;-55
2022/07/02 02:07:14;;;;;;;4.88;1.77;;;13.20;99.90;;;;;;5072445;28;20032;-53
2022/07/02 02:09:39;;;;;;;3.08;1.70;;;13.10;99.90;;;;;;5074127;28;20502;-51
2022/07/02 02:12:06;;;;;;;2.63;1.80;;;13.00;99.90;;;;;;5073082;28;20028;-52
2022/07/02 02:14:32;;;;;;;4.55;1.92;;;12.90;99.90;;;;;;5072831;28;20051;-54
2022/07/02 02:16:58;;;;;;;5.90;1.80;;;12.90;99.90;;;;;;5072916;28;20024;-51
2022/07/02 02:19:23;;;;;;;3.67;1.17;;;12.90;99.90;;;;;;5072421;28;20025;-51
2022/07/02 02:21:49;;;;;;;1.55;1.33;;;12.90;99.90;;;;;;5072464;28;20031;-49
2022/07/02 02:24:15;;;;;;;2.40;1.45;;;12.80;99.90;;;;;;5072737;28;20028;-51
2022/07/02 02:26:41;;;;;;;2.80;1.55;;;12.80;99.90;;;;;;5073582;28;20056;-51
2022/07/02 02:29:06;;;;;;;4.30;1.48;;;12.80;99.90;;;;;;5072235;28;20025;-53
2022/07/02 02:31:32;;;;;;;5.57;1.42;;;12.80;99.90;;;;;;5072342;28;20055;-54
2022/07/02 02:33:58;;;;;;;5.40;1.90;;;12.80;99.90;;;;;;5072111;28;20060;-55
2022/07/02 02:36:23;;;;;;;9.30;2.50;;;12.70;99.90;;;;;;5071828;28;20031;-51
2022/07/02 02:38:49;;;;;;;11.65;2.20;;;12.70;99.90;;;;;;5072377;28;20021;-52
2022/07/02 02:41:15;;;;;;;7.07;1.67;;;12.70;99.90;;;;;;5072631;28;20016;-53
2022/07/02 02:43:41;;;;;;;4.78;1.77;;;12.70;99.90;;;;;;5073363;28;20020;-53
2022/07/02 02:46:07;;;;;;;11.43;1.88;;;12.70;99.90;;;;;;5073342;28;20021;-53
2022/07/02 02:48:35;;;;;;;4.05;1.60;;;12.80;99.90;;;;;;5073235;28;20104;-53
2022/07/02 02:51:01;;;;;;;2.88;1.40;;;12.70;99.90;;;;;;5073157;28;20091;-53
2022/07/02 02:53:26;;;;;;;2.90;1.70;;;12.70;99.90;;;;;;5073797;28;20100;-50
2022/07/02 02:55:52;;;;;;;2.60;1.60;;;12.50;99.90;;;;;;5072235;28;20100;-51
2022/07/02 02:58:18;;;;;;;3.75;1.58;;;12.50;99.90;;;;;;5072169;28;20024;-52
2022/07/02 03:00:44;;;;;;;6.65;1.60;;;12.40;99.90;;;;;;5071834;28;20098;-53
2022/07/02 03:03:09;;;;;;;5.07;1.90;;;12.40;99.90;;;;;;5071901;28;20020;-50
2022/07/02 03:05:35;;;;;;;3.67;1.65;;;12.40;99.90;;;;;;5071763;28;20063;-51
2022/07/02 03:08:01;;;;;;;4.40;1.55;;;12.40;99.90;;;;;;5073529;28;20036;-55
2022/07/02 03:10:26;;;;;;;8.13;2.28;;;12.40;99.90;;;;;;5072985;28;20048;-53
2022/07/02 03:12:52;;;;;;;3.20;1.52;;;12.40;99.90;;;;;;5073211;28;20017;-55
2022/07/02 03:15:18;;;;;;;8.73;1.70;;;12.30;99.90;;;;;;5071878;28;20033;-53
2022/07/02 03:17:43;;;;;;;7.35;2.35;;;12.30;99.90;;;;;;5071628;28;20025;-55
2022/07/02 03:20:10;;;;;;;11.70;2.53;;;12.20;99.90;;;;;;5072902;28;20040;-53
2022/07/02 03:22:35;;;;;;;11.75;2.33;;;12.30;99.90;;;;;;5072741;28;20021;-55
2022/07/02 03:25:01;;;;;;;10.70;1.65;;;12.30;99.90;;;;;;5071723;28;20096;-53
2022/07/02 03:27:27;;;;;;;8.63;1.70;;;12.40;99.90;;;;;;5073049;28;20032;-55
2022/07/02 03:29:52;;;;;;;7.47;2.17;;;12.40;99.90;;;;;;5071528;28;20024;-51
2022/07/02 03:32:19;;;;;;;4.57;1.70;;;12.40;99.90;;;;;;5071661;28;20060;-53
2022/07/02 03:34:44;;;;;;;3.90;1.63;;;12.40;99.90;;;;;;5071415;28;20032;-55
2022/07/02 03:37:11;;;;;;;12.40;1.73;;;12.30;99.90;;;;;;5071343;28;20027;-53
2022/07/02 03:39:36;;;;;;;10.65;1.88;;;12.40;99.90;;;;;;5072629;28;20024;-54
2022/07/02 03:42:20;;;;;;;4.82;1.58;;;12.40;99.90;;;;;;5072852;28;20048;-50
2022/07/02 03:44:46;;;;;;;4.28;1.85;;;12.50;99.90;;;;;;5071963;28;20024;-54
2022/07/02 03:47:11;;;;;;;8.80;2.45;;;12.50;99.90;;;;;;5072715;28;20074;-52
2022/07/02 03:49:37;;;;;;;4.28;1.83;;;12.50;99.90;;;;;;5075463;28;20055;-53
2022/07/02 03:52:03;;;;;;;6.05;2.15;;;12.50;99.90;;;;;;5075337;28;20025;-54
2022/07/02 03:54:29;;;;;;;4.97;1.80;;;12.50;99.90;;;;;;5076231;28;20040;-54
2022/07/02 03:56:55;;;;;;;6.78;2.00;;;12.50;99.90;;;;;;5074969;28;20024;-51
2022/07/02 03:59:20;;;;;;;5.68;1.90;;;12.60;99.90;;;;;;5075895;28;20025;-51
2022/07/02 04:01:46;;;;;;;6.55;2.20;;;12.60;99.90;;;;;;5075329;28;20025;-52
2022/07/02 04:04:12;;;;;;;4.07;1.70;;;12.70;99.90;;;;;;5075131;28;20027;-51
2022/07/02 04:06:37;;;;;;;2.88;2.15;;;12.90;99.90;;;;;;5074955;28;20032;-52
2022/07/02 04:09:03;;;;;;;3.38;1.90;;;13.10;99.90;;;;;;5074851;28;20032;-51
2022/07/02 04:11:29;;;;;;;3.88;1.60;;;13.30;99.90;;;;;;5075990;28;20045;-51
2022/07/02 04:13:54;;;;;;;8.20;1.90;;;13.50;99.90;;;;;;5075452;28;20028;-52
2022/07/02 04:16:20;;;;;;;3.28;1.90;;;13.70;99.90;;;;;;5074774;28;20028;-53
2022/07/02 04:18:45;;;;;;;5.28;1.85;;;13.90;99.90;;;;;;5076342;28;20031;-52
2022/07/02 04:21:11;;;;;;;5.72;2.22;;;14.00;99.90;;;;;;5076241;28;20024;-50
2022/07/02 04:23:37;;;;;;;2.95;1.65;;;14.30;99.90;;;;;;5074603;28;20031;-52
2022/07/02 04:26:04;;;;;;;5.13;1.60;;;14.70;99.90;;;;;;5075244;28;20024;-50
2022/07/02 04:28:30;;;;;;;9.50;1.40;;;15.10;99.90;;;;;;5076211;28;20084;-52
2022/07/02 04:30:56;;;;;;;5.00;1.83;;;15.40;99.90;;;;;;5074431;28;20120;-50
2022/07/02 04:33:21;;;;;;;5.50;1.45;;;15.70;99.90;;;;;;5076189;28;20024;-50
2022/07/02 04:35:47;;;;;;;5.78;1.40;;;16.10;99.90;;;;;;5074633;28;20028;-54
2022/07/02 04:38:13;;;;;;;9.50;1.45;;;16.50;99.90;;;;;;5074564;28;20017;-50
2022/07/02 04:40:38;;;;;;;3.40;1.58;;;16.80;99.90;;;;;;5074450;28;20016;-48
2022/07/02 04:43:04;;;;;;;4.72;1.40;;;17.10;99.90;;;;;;5074763;28;20032;-50
2022/07/02 04:45:29;;;;;;;9.32;2.08;;;17.60;99.90;;;;;;5074372;28;20032;-55
2022/07/02 04:47:55;;;;;;;2.60;1.40;;;18.00;99.90;;;;;;5074330;28;20108;-50
2022/07/02 04:50:21;;;;;;;4.72;1.85;;;18.10;99.90;;;;;;5074623;28;20040;-53
2022/07/02 04:52:48;;;;;;;6.40;1.50;;;18.20;99.90;;;;;;5074341;28;20021;-51
2022/07/02 04:55:14;;;;;;;2.08;1.30;;;18.50;99.90;;;;;;5075838;28;20171;-50
2022/07/02 04:57:40;;;;;;;4.03;1.95;;;18.50;99.90;;;;;;5075025;28;20027;-50
2022/07/02 05:00:06;;;;;;;3.85;1.55;;;18.60;99.90;;;;;;5074390;28;20020;-50
2022/07/02 05:02:32;;;;;;;2.08;1.60;;;18.90;99.90;;;;;;5048018;28;20022;-53
2022/07/02 05:04:58;;;;;;;5.03;1.60;;;19.10;99.90;;;;;;5034201;28;20083;-52
2022/07/02 05:07:23;;;;;;;2.05;1.70;;;19.40;99.90;;;;;;5034464;28;20155;-51
2022/07/02 05:09:49;;;;;;;2.13;1.92;;;19.60;99.90;;;;;;5034186;28;20040;-50
2022/07/02 05:12:14;;;;;;;6.43;1.50;;;19.30;99.90;;;;;;5033907;28;20029;-49
2022/07/02 05:14:40;;;;;;;3.03;1.67;;;19.60;99.90;;;;;;5034466;28;20420;-54
2022/07/02 05:17:06;;;;;;;4.45;1.60;;;20.10;99.90;;;;;;5034278;28;20028;-51
2022/07/02 05:19:31;;;;;;;1.83;1.40;;;20.40;99.90;;;;;;5035177;28;20109;-50
2022/07/02 05:21:57;;;;;;;1.88;1.50;;;20.80;99.90;;;;;;5033704;28;20084;-54
2022/07/02 05:24:22;;;;;;;3.85;1.58;;;21.20;99.90;;;;;;5033756;28;20021;-50
2022/07/02 05:26:48;;;;;;;2.65;1.70;;;21.70;99.90;;;;;;5034933;28;20033;-54
2022/07/02 05:29:14;;;;;;;2.13;1.70;;;22.10;99.90;;;;;;5033779;28;20029;-52
2022/07/02 05:31:39;;;;;;;3.38;1.48;;;22.00;99.90;;;;;;5034746;28;20064;-52
2022/07/02 05:34:05;;;;;;;2.92;1.60;;;22.50;99.90;;;;;;5034801;28;20034;-51
2022/07/02 05:36:31;;;;;;;4.60;1.38;;;22.90;99.90;;;;;;5034951;28;20022;-51
2022/07/02 05:38:56;;;;;;;4.28;1.65;;;23.30;99.90;;;;;;5040250;28;20032;-51
2022/07/02 05:41:22;;;;;;;2.20;1.60;;;23.80;99.90;;;;;;5053160;28;20032;-55
2022/07/02 05:43:47;;;;;;;4.20;1.83;;;24.20;99.90;;;;;;5053567;28;20024;-56
2022/07/02 05:46:13;;;;;;;4.30;2.47;;;24.70;99.90;;;;;;5054486;28;20052;-54
2022/07/02 05:48:38;;;;;;;3.72;1.60;;;25.00;99.90;;;;;;5053161;28;20116;-52
2022/07/02 05:51:04;;;;;;;5.30;1.40;;;25.50;99.90;;;;;;5054427;28;20056;-51
2022/07/02 05:53:30;;;;;;;2.45;1.60;;;25.90;99.90;;;;;;5054408;28;20021;-54
2022/07/02 05:55:55;;;;;;;2.58;1.20;;;26.30;99.90;;;;;;5054090;28;20029;-53
2022/07/02 05:58:21;;;;;;;3.10;1.40;;;26.80;99.90;;;;;;5053072;28;20039;-56
2022/07/02 06:00:46;;;;;;;2.92;1.50;;;27.10;99.90;;;;;;5053244;28;20481;-52
2022/07/02 06:03:12;;;;;;;2.78;1.52;;;27.40;99.90;;;;;;5053219;28;20029;-53
2022/07/02 06:08:22;;;;;;;2.97;1.58;;;28.20;99.90;;;;;;5054405;28;20044;-53
2022/07/02 06:10:47;;;;;;;3.70;2.03;;;28.40;99.90;;;;;;5052030;28;20032;-51
2022/07/02 06:13:15;;;;;;;4.13;1.98;;;28.70;99.90;;;;;;5035316;28;20025;-53
2022/07/02 06:15:41;;;;;;;4.97;1.85;;;29.00;98.80;;;;;;5033037;28;20547;-53
2022/07/02 06:18:06;;;;;;;3.45;1.40;;;29.30;99.00;;;;;;5032756;28;20117;-55
2022/07/02 06:20:32;;;;;;;4.95;1.80;;;29.80;98.60;;;;;;5032807;28;20032;-53
2022/07/02 06:22:58;;;;;;;4.32;1.65;;;29.80;95.70;;;;;;5033892;28;20104;-54
2022/07/02 06:25:23;;;;;;;8.00;1.60;;;29.40;95.90;;;;;;5033959;28;20021;-55
2022/07/02 06:31:18;;;;;;;3.15;1.90;;;29.70;96.50;;;;;;5034021;28;20025;-53
2022/07/02 06:33:44;;;;;;;3.85;1.90;;;30.50;93.70;;;;;;5032674;28;20025;-52
2022/07/02 06:36:14;;;;;;;2.97;1.48;;;31.00;92.60;;;;;;5039251;28;20031;-53
2022/07/02 06:38:40;;;;;;;2.67;1.57;;;30.60;92.70;;;;;;5053553;28;20013;-49
2022/07/02 06:43:50;;;;;;;4.97;1.90;;;31.60;91.60;;;;;;5053842;28;20035;-54
2022/07/02 06:46:16;;;;;;;3.88;1.50;;;32.30;90.90;;;;;;5053321;28;20025;-49
2022/07/02 06:48:41;;;;;;;3.08;1.70;;;32.40;91.30;;;;;;5053788;28;20044;-53
2022/07/02 06:51:07;;;;;;;2.65;2.03;;;32.10;88.10;;;;;;5053326;28;20067;-54
2022/07/02 06:53:33;;;;;;;5.47;1.80;;;31.20;89.90;;;;;;5052144;28;20029;-54
2022/07/02 06:55:58;;;;;;;3.92;1.52;;;32.10;90.00;;;;;;5051947;28;20056;-55
2022/07/02 06:58:24;;;;;;;3.45;1.50;;;32.80;89.50;;;;;;5053370;28;20028;-52
2022/07/02 07:00:49;;;;;;;3.28;1.45;;;33.20;88.00;;;;;;5052012;28;20475;-54
2022/07/02 07:03:15;;;;;;;3.58;1.75;;;33.80;85.00;;;;;;5052838;28;20031;-54
2022/07/02 07:05:46;;;;;;;2.95;1.67;;;34.20;85.10;;;;;;5052319;28;20029;-51
2022/07/02 07:08:12;;;;;;;6.90;1.75;;;34.80;81.40;;;;;;5053208;28;20025;-54
2022/07/02 07:10:37;;;;;;;2.45;1.10;;;35.00;80.50;;;;;;5051990;28;20044;-54
2022/07/02 07:13:03;;;;;;;2.33;1.40;;;35.40;79.00;;;;;;5053193;28;20527;-58
2022/07/02 07:15:28;;;;;;;3.00;1.85;;;36.00;78.10;;;;;;5049134;28;20025;-57
2022/07/02 07:18:01;;;;;;;3.22;1.50;;;35.20;76.80;;;;;;5032265;28;20021;-59
2022/07/02 07:20:29;;;;;;;3.13;1.60;;;35.60;79.10;;;;;;5039299;28;20124;-57
2022/07/02 07:22:55;;;;;;;3.05;1.67;;;36.20;74.80;;;;;;5055158;28;20115;-52
2022/07/02 07:25:21;;;;;;;3.08;1.65;;;36.50;73.80;;;;;;5055678;28;20032;-52
2022/07/02 07:27:47;;;;;;;4.47;1.90;;;37.00;71.60;;;;;;5057025;28;20029;-55
2022/07/02 07:30:13;;;;;;;7.50;1.70;;;36.60;70.40;;;;;;5055710;28;20025;-51
2022/07/02 07:32:38;;;;;;;2.05;1.77;;;35.40;73.30;;;;;;5057199;28;20029;-50
2022/07/02 07:35:05;;;;;;;3.25;1.77;;;34.50;73.80;;;;;;5057097;28;20039;-52
2022/07/02 07:37:31;;;;;;;2.72;1.85;;;34.10;76.10;;;;;;5056916;28;20025;-51
2022/07/02 07:39:56;;;;;;;4.18;1.90;;;34.40;74.70;;;;;;5055739;28;20025;-49
2022/07/02 07:42:27;;;;;;;3.47;1.70;;;35.60;75.00;;;;;;5055555;28;20032;-50
2022/07/02 07:44:53;;;;;;;3.42;2.47;;;36.50;73.20;;;;;;5056914;28;20025;-54
2022/07/02 07:47:18;;;;;;;2.03;1.85;;;37.20;67.10;;;;;;5055502;28;20541;-51
2022/07/02 07:49:44;;;;;;;3.90;2.53;;;37.30;69.60;;;;;;5056672;28;20025;-48
2022/07/02 07:52:10;;;;;;;4.15;2.95;;;36.50;68.80;;;;;;5056554;28;20075;-49
2022/07/02 07:54:37;;;;;;;2.75;2.55;;;34.50;69.30;;;;;;5056576;28;20080;-48
2022/07/02 07:57:02;;;;;;;3.72;2.53;;;32.90;71.20;;;;;;5056206;28;20021;-52
2022/07/02 07:59:28;;;;;;;3.25;1.92;;;32.60;73.60;;;;;;5056529;28;20017;-52
2022/07/02 08:01:54;;;;;;;3.30;2.10;;;33.00;72.50;;;;;;5055137;28;20021;-53
2022/07/02 08:04:19;;;;;;;5.57;2.00;;;32.40;74.10;;;;;;5055196;28;20119;-54
2022/07/02 08:06:45;;;;;;;3.35;1.83;;;32.50;74.90;;;;;;5055726;28;20037;-52
2022/07/02 08:09:10;;;;;;;2.65;1.98;;;33.30;72.80;;;;;;5056051;28;20029;-57
2022/07/02 08:11:36;;;;;;;3.75;2.17;;;34.00;71.90;;;;;;5055905;28;20383;-52
2022/07/02 08:14:02;;;;;;;4.18;2.30;;;33.70;71.50;;;;;;5055176;28;20360;-53
2022/07/02 08:16:50;;;;;;;4.20;1.98;;;32.90;71.60;;;;;;5054932;28;20021;-56
2022/07/02 08:19:16;;;;;;;1.63;1.50;;;33.40;72.00;;;;;;5055104;28;20028;-56
2022/07/02 08:21:42;;;;;;;2.40;1.60;;;32.70;72.30;;;;;;5055155;28;20430;-56
2022/07/02 08:24:08;;;;;;;5.45;1.65;;;32.60;72.80;;;;;;5055398;28;20116;-52
2022/07/02 08:26:33;;;;;;;3.85;1.42;;;33.80;70.80;;;;;;5055352;28;20025;-56
2022/07/02 08:28:59;;;;;;;3.92;1.40;;;33.80;70.70;;;;;;5055132;28;20388;-56
2022/07/02 08:31:24;;;;;;;2.25;1.50;;;35.30;69.30;;;;;;5054740;28;20029;-56
2022/07/02 08:33:50;;;;;;;3.75;1.30;;;35.00;66.00;;;;;;5054135;28;20075;-56
2022/07/02 08:36:16;;;;;;;2.45;1.20;;;35.30;66.50;;;;;;5055776;28;20386;-56
2022/07/02 08:38:41;;;;;;;2.13;1.38;;;36.90;65.20;;;;;;5054570;28;20095;-54
2022/07/02 08:41:09;;;;;;;3.28;1.23;;;36.50;61.60;;;;;;5055616;28;20022;-55
2022/07/02 08:43:36;;;;;;;4.47;2.15;;;35.10;63.70;;;;;;5054483;28;20028;-55
2022/07/02 08:46:04;;;;;;;1.80;1.13;;;34.30;64.60;;;;;;5055967;28;20025;-53
2022/07/02 08:48:33;;;;;;;1.38;1.02;;;34.00;65.80;;;;;;5055961;28;20025;-52
2022/07/02 08:51:00;;;;;;;3.70;1.02;;;35.20;63.20;;;;;;5055819;28;20102;-56
2022/07/02 08:53:25;;;;;;;3.22;1.30;;;35.30;62.90;;;;;;5054578;28;20028;-56
2022/07/02 08:55:53;;;;;;;6.13;1.05;;;36.40;60.20;;;;;;5054172;28;20119;-56
2022/07/02 08:58:20;;;;;;;2.95;0.90;;;35.70;59.30;;;;;;5055470;28;20105;-52
2022/07/02 09:00:47;;;;;;;4.05;0.98;;;35.70;58.00;;;;;;5055010;28;20025;-53
2022/07/02 09:03:14;;;;;;;2.10;1.00;;;35.40;62.10;;;;;;5054897;28;20460;-51
2022/07/02 09:05:41;;;;;;;2.58;0.88;;;36.80;58.60;;;;;;5054122;28;20025;-56
2022/07/02 09:08:08;;;;;;;4.20;1.10;;;37.50;57.40;;;;;;5054296;28;20028;-54
2022/07/02 09:10:34;;;;;;;4.18;1.20;;;37.40;57.70;;;;;;5055294;28;20086;-57
2022/07/02 09:13:02;;;;;;;3.72;1.10;;;38.60;56.70;;;;;;5053983;28;20120;-52
2022/07/02 09:15:27;;;;;;;2.63;1.10;;;38.00;54.90;;;;;;5053904;28;20021;-53
2022/07/02 09:17:53;;;;;;;2.42;1.00;;;36.70;57.30;;;;;;5055102;28;20123;-56
2022/07/02 09:20:19;;;;;;;1.13;0.90;;;35.30;57.60;;;;;;5054627;28;20021;-56
2022/07/02 09:22:48;;;;;;;2.17;0.82;;;35.20;58.30;;;;;;5053803;28;20087;-54
2022/07/02 09:25:20;;;;;;;2.55;1.00;;;36.30;58.30;;;;;;5053095;28;20037;-55
2022/07/02 09:27:47;;;;;;;1.02;0.73;;;36.00;58.10;;;;;;5033728;28;20476;-59
2022/07/02 09:30:17;;;;;;;2.67;0.93;;;37.10;56.90;;;;;;5033605;28;20037;-57
2022/07/02 09:32:45;;;;;;;6.03;0.90;;;38.40;54.70;;;;;;5035217;28;20083;-55
2022/07/02 09:35:21;;;;;;;1.77;0.95;;;39.60;53.80;;;;;;5034890;28;20033;-58
2022/07/02 09:37:49;;;;;;;3.42;0.80;;;37.50;52.70;;;;;;5033646;28;20050;-57
2022/07/02 09:40:16;;;;;;;4.15;0.90;;;35.90;52.30;;;;;;5034682;28;20112;-57
2022/07/02 09:42:46;;;;;;;3.25;0.85;;;35.10;54.90;;;;;;5048635;28;20028;-57
2022/07/02 09:45:13;;;;;;;0.60;0.60;;;36.10;55.90;;;;;;5033043;28;20033;-55
2022/07/02 09:47:48;;;;;;;0.77;0.68;;;37.50;52.80;;;;;;5034663;28;20476;-56
2022/07/02 09:50:16;;;;;;;4.15;0.73;;;38.90;49.10;;;;;;5034156;28;20095;-57
2022/07/02 09:52:55;;;;;;;3.92;0.70;;;38.10;50.50;;;;;;5033209;28;20509;-58
2022/07/02 09:55:27;;;;;;;2.17;0.80;;;39.00;50.80;;;;;;5033977;28;20025;-57
2022/07/02 09:57:58;;;;;;;1.75;0.70;;;38.70;50.20;;;;;;5034761;28;20492;-53
2022/07/02 10:00:26;;;;;;;5.40;1.52;;;37.30;48.90;;;;;;5033517;28;20032;-57
2022/07/02 10:02:54;;;;;;;1.77;0.70;;;35.70;52.80;;;;;;5034325;28;20067;-55
2022/07/02 10:05:33;;;;;;;3.35;0.60;;;36.50;50.60;;;;;;5033109;28;20120;-55
2022/07/02 10:08:00;;;;;;;1.23;0.75;;;35.30;50.90;;;;;;5034349;28;20124;-54
2022/07/02 10:10:29;;;;;;;2.75;0.80;;;33.70;52.70;;;;;;5033117;28;20116;-58
2022/07/02 10:12:56;;;;;;;2.30;0.70;;;34.60;54.40;;;;;;5033730;28;20032;-53
2022/07/02 10:15:24;;;;;;;1.95;0.70;;;34.60;52.70;;;;;;5034328;28;20017;-55
2022/07/02 10:17:54;;;;;;;4.00;0.77;;;33.40;54.70;;;;;;5034305;28;20022;-57
2022/07/02 10:20:22;;;;;;;2.05;0.80;;;33.10;53.80;;;;;;5032743;28;20089;-56
2022/07/02 10:22:47;;;;;;;1.00;0.55;;;33.20;55.70;;;;;;5033904;28;20075;-58
2022/07/02 10:25:14;;;;;;;0.40;0.40;;;34.40;52.30;;;;;;5033208;28;20025;-55
2022/07/02 10:27:41;;;;;;;2.38;0.82;;;32.90;53.90;;;;;;5033168;28;20060;-56
2022/07/02 10:30:07;;;;;;;0.68;0.40;;;33.50;53.50;;;;;;5032353;28;20049;-55
2022/07/02 10:33:00;;;;;;;1.85;1.27;;;32.80;52.60;;;;;;5032541;28;20477;-57
2022/07/02 10:35:26;;;;;;;1.55;0.50;;;33.00;53.80;;;;;;5032402;28;20036;-57
2022/07/02 10:37:59;;;;;;;1.60;0.40;;;32.40;52.60;;;;;;5032568;28;20021;-55
2022/07/02 10:40:25;;;;;;;1.45;0.50;;;30.80;53.90;;;;;;5033560;28;20029;-54
2022/07/02 10:42:52;;;;;;;3.13;0.50;;;30.70;55.00;;;;;;5033266;28;20136;-56
2022/07/02 10:45:19;;;;;;;0.88;0.65;;;29.60;55.20;;;;;;5032852;28;20025;-57
2022/07/02 10:48:05;;;;;;;0.30;0.30;;;29.10;56.40;;;;;;5033567;28;20440;-57
2022/07/02 10:50:39;;;;;;;1.80;0.55;;;28.50;56.80;;;;;;5032902;28;20049;-55
2022/07/02 10:53:18;;;;;;;4.15;0.68;;;28.60;59.40;;;;;;5033308;28;20036;-53
2022/07/02 10:55:55;;;;;;;0.82;0.57;;;29.00;60.80;;;;;;5031914;28;20033;-54
2022/07/02 10:58:23;;;;;;;1.60;0.50;;;28.30;57.10;;;;;;5033445;28;20477;-51
2022/07/02 11:00:49;;;;;;;1.17;0.60;;;28.20;59.70;;;;;;5033281;28;20021;-54
2022/07/02 11:03:18;;;;;;;2.08;0.50;;;28.70;62.40;;;;;;5033690;28;20044;-57
2022/07/02 11:05:56;;;;;;;1.20;0.65;;;28.50;60.10;;;;;;5033884;28;20083;-54
2022/07/02 11:08:40;;;;;;;3.08;0.93;;;28.20;62.00;;;;;;5033414;28;20060;-52
2022/07/02 11:11:06;;;;;;;2.05;0.70;;;28.30;59.50;;;;;;5033841;28;20034;-56
2022/07/02 11:13:48;;;;;;;2.03;0.70;;;28.20;60.40;;;;;;5043878;28;20022;-52
2022/07/02 11:16:50;;;;;;;0.80;0.60;;;28.20;60.90;;;;;;5049315;28;20029;-55
2022/07/02 11:19:20;;;;;;;2.60;0.60;;;28.20;60.60;;;;;;5032008;28;20025;-54
2022/07/02 11:21:48;;;;;;;0.98;0.65;;;28.00;60.40;;;;;;5037643;28;20059;-52
2022/07/02 11:24:19;;;;;;;1.70;0.63;;;27.30;60.30;;;;;;5050892;28;20048;-52
2022/07/02 11:26:45;;;;;;;;;;;27.10;61.80;;;;;;5032567;28;20037;-54
2022/07/02 11:29:11;;;;;;;1.23;0.47;;;26.60;61.90;;;;;;5031947;28;19905;-56
2022/07/02 11:31:44;;;;;;;6.88;0.65;;;26.30;61.30;;;;;;5031739;28;20108;-55
2022/07/02 11:34:10;;;;;;;0.65;0.40;;;26.40;64.90;;;;;;5032994;28;20021;-56
2022/07/02 11:36:39;;;;;;;0.68;0.50;;;26.50;64.00;;;;;;5032009;28;20503;-54
2022/07/02 11:39:13;;;;;;;2.45;0.60;;;26.10;62.60;;;;;;5033323;28;20076;-54
2022/07/02 11:41:39;;;;;;;1.60;0.50;;;26.10;64.00;;;;;;5033062;28;20404;-51
2022/07/02 11:44:19;;;;;;;1.42;0.70;;;26.20;61.40;;;;;;5033225;28;20022;-53
2022/07/02 11:46:56;;;;;;;1.73;0.40;;;26.00;63.10;;;;;;5033057;28;20096;-50
2022/07/02 11:49:24;;;;;;;1.08;0.60;;;26.00;62.50;;;;;;5033318;28;20060;-55
2022/07/02 11:51:51;;;;;;;1.67;0.77;;;26.10;63.30;;;;;;5032871;28;20472;-51
2022/07/02 11:54:18;;;;;;;3.88;1.10;;;26.40;66.50;;;;;;5032082;28;20531;-53
2022/07/02 11:56:45;;;;;;;3.65;0.73;;;26.70;66.30;;;;;;5032907;28;20361;-53
2022/07/02 11:59:13;;;;;;;1.70;0.60;;;26.80;63.00;;;;;;5032950;28;20021;-49
2022/07/02 12:01:41;;;;;;;0.43;0.32;;;26.90;64.10;;;;;;5032100;28;20080;-54
2022/07/02 12:04:10;;;;;;;2.13;0.40;;;26.90;63.50;;;;;;5032884;28;20022;-55
2022/07/02 12:06:43;;;;;;;4.20;0.60;;;26.70;62.20;;;;;;5032789;28;20025;-55
2022/07/02 12:09:28;;;;;;;8.82;0.90;;;25.90;62.90;;;;;;5035056;28;20022;-56
2022/07/02 12:11:56;;;;;;;2.00;0.63;;;25.40;63.90;;;;;;5036290;28;20042;-54
2022/07/02 12:14:29;;;;;;;2.45;0.70;;;25.30;65.60;;;;;;5050237;28;20033;-51
2022/07/02 12:16:56;;;;;;;0.55;0.40;;;25.60;66.70;;;;;;5056214;28;20033;-53
2022/07/02 12:19:29;;;;;;;1.58;0.82;;;26.00;65.70;;;;;;5055036;28;20085;-50
2022/07/02 12:25:05;;;;;;;1.35;0.55;;;26.40;64.60;;;;;;5056701;28;20035;-49
2022/07/02 12:27:36;;;;;;;1.85;0.63;;;26.20;64.00;;;;;;5055970;28;20028;-54
2022/07/02 12:30:14;;;;;;;0.88;0.55;;;26.40;65.30;;;;;;5043933;28;20026;-52
2022/07/02 12:32:39;;;;;;;2.47;0.47;;;26.50;65.30;;;;;;5036037;28;20029;-52
2022/07/02 12:35:19;;;;;;;4.32;0.60;;;26.60;64.30;;;;;;5036707;28;20028;-49
2022/07/02 12:37:46;;;;;;;2.65;0.60;;;26.60;62.00;;;;;;5035174;28;20033;-49
2022/07/02 12:40:19;;;;;;;1.65;0.57;;;26.40;64.10;;;;;;5054117;28;20029;-50
2022/07/02 12:42:47;;;;;;;2.38;0.70;;;26.40;64.90;;;;;;5054659;28;20032;-49
2022/07/02 12:45:33;;;;;;;0.98;0.50;;;26.50;63.80;;;;;;5054599;28;20547;-49
2022/07/02 12:48:00;;;;;;;2.63;0.50;;;26.40;65.00;;;;;;5054578;28;20028;-49
2022/07/02 12:50:28;;;;;;;2.45;0.63;;;26.50;62.80;;;;;;5055661;28;20056;-51
2022/07/02 12:52:55;;;;;;;0.85;0.50;;;26.60;64.90;;;;;;5038962;28;20071;-51
2022/07/02 12:55:26;;;;;;;2.40;0.50;;;26.80;64.00;;;;;;5034359;28;20022;-52
2022/07/02 12:57:53;;;;;;;1.02;0.52;;;26.70;61.80;;;;;;5034723;28;20049;-50
2022/07/02 13:00:20;;;;;;;1.60;0.60;;;26.70;64.20;;;;;;5035741;28;20158;-55
2022/07/02 13:02:45;;;;;;;2.25;0.50;;;26.80;64.40;;;;;;5034393;28;20029;-51
2022/07/02 13:05:11;;;;;;;0.55;0.55;;;26.80;64.10;;;;;;5034650;28;20030;-52